sensor_id;sensor_type;location;lat;lon;timestamp;P1;durP1;ratioP1;P2;durP2;ratioP2
495;SDS011;39559;48.630;9.162;2023-10-08T00:01:16;9.38;;;5.38;;
495;SDS011;39559;48.630;9.162;2023-10-08T00:03:42;10.57;;;7.50;;
495;SDS011;39559;48.630;9.162;2023-10-08T00:06:14;8.55;;;6.63;;
495;SDS011;39559;48.630;9.162;2023-10-08T00:08:40;9.32;;;6.80;;
495;SDS011;39559;48.630;9.162;2023-10-08T00:11:06;12.23;;;6.97;;
495;SDS011;39559;48.630;9.162;2023-10-08T00:13:32;16.25;;;7.53;;
495;SDS011;39559;48.630;9.162;2023-10-08T00:17:32;13.55;;;8.35;;
495;SDS011;39559;48.630;9.162;2023-10-08T00:19:58;10.30;;;7.70;;
495;SDS011;39559;48.630;9.162;2023-10-08T00:22:26;12.82;;;7.72;;
495;SDS011;39559;48.630;9.162;2023-10-08T00:24:51;12.63;;;7.90;;
495;SDS011;39559;48.630;9.162;2023-10-08T00:27:23;12.00;;;7.65;;
495;SDS011;39559;48.630;9.162;2023-10-08T00:29:50;11.23;;;8.05;;
495;SDS011;39559;48.630;9.162;2023-10-08T00:32:15;10.63;;;7.80;;
495;SDS011;39559;48.630;9.162;2023-10-08T00:34:42;10.85;;;6.72;;
495;SDS011;39559;48.630;9.162;2023-10-08T00:37:09;11.27;;;6.10;;
495;SDS011;39559;48.630;9.162;2023-10-08T00:41:30;12.23;;;6.10;;
495;SDS011;39559;48.630;9.162;2023-10-08T00:43:58;10.48;;;5.70;;
495;SDS011;39559;48.630;9.162;2023-10-08T00:46:26;8.88;;;6.28;;
495;SDS011;39559;48.630;9.162;2023-10-08T00:48:56;8.70;;;6.50;;
495;SDS011;39559;48.630;9.162;2023-10-08T00:51:36;11.88;;;6.15;;
495;SDS011;39559;48.630;9.162;2023-10-08T00:54:24;13.45;;;6.68;;
495;SDS011;39559;48.630;9.162;2023-10-08T00:56:53;5.93;;;5.43;;
495;SDS011;39559;48.630;9.162;2023-10-08T00:59:22;9.32;;;6.28;;
495;SDS011;39559;48.630;9.162;2023-10-08T01:01:52;7.30;;;5.60;;
495;SDS011;39559;48.630;9.162;2023-10-08T01:05:28;7.95;;;5.90;;
495;SDS011;39559;48.630;9.162;2023-10-08T01:08:12;6.40;;;5.78;;
495;SDS011;39559;48.630;9.162;2023-10-08T01:10:43;7.78;;;5.32;;
495;SDS011;39559;48.630;9.162;2023-10-08T01:13:12;10.75;;;6.10;;
495;SDS011;39559;48.630;9.162;2023-10-08T01:15:46;9.70;;;6.25;;
495;SDS011;39559;48.630;9.162;2023-10-08T01:18:16;8.88;;;6.18;;
495;SDS011;39559;48.630;9.162;2023-10-08T01:20:54;6.78;;;5.65;;
495;SDS011;39559;48.630;9.162;2023-10-08T01:23:21;7.65;;;5.78;;
495;SDS011;39559;48.630;9.162;2023-10-08T01:25:48;7.47;;;5.32;;
495;SDS011;39559;48.630;9.162;2023-10-08T01:29:25;7.65;;;5.53;;
495;SDS011;39559;48.630;9.162;2023-10-08T01:31:53;7.88;;;4.93;;
495;SDS011;39559;48.630;9.162;2023-10-08T01:34:20;7.32;;;4.47;;
495;SDS011;39559;48.630;9.162;2023-10-08T01:36:52;6.72;;;4.97;;
495;SDS011;39559;48.630;9.162;2023-10-08T01:39:18;4.97;;;4.00;;
495;SDS011;39559;48.630;9.162;2023-10-08T01:41:44;5.20;;;4.55;;
495;SDS011;39559;48.630;9.162;2023-10-08T01:44:12;5.35;;;4.72;;
495;SDS011;39559;48.630;9.162;2023-10-08T01:46:38;5.70;;;5.03;;
495;SDS011;39559;48.630;9.162;2023-10-08T01:49:06;7.38;;;4.40;;
495;SDS011;39559;48.630;9.162;2023-10-08T01:53:23;5.20;;;3.85;;
495;SDS011;39559;48.630;9.162;2023-10-08T01:55:48;4.80;;;4.20;;
495;SDS011;39559;48.630;9.162;2023-10-08T01:58:17;4.67;;;4.17;;
495;SDS011;39559;48.630;9.162;2023-10-08T02:00:44;5.07;;;4.55;;
495;SDS011;39559;48.630;9.162;2023-10-08T02:03:14;6.38;;;4.93;;
495;SDS011;39559;48.630;9.162;2023-10-08T02:05:42;7.30;;;4.78;;
495;SDS011;39559;48.630;9.162;2023-10-08T02:08:09;5.53;;;4.30;;
495;SDS011;39559;48.630;9.162;2023-10-08T02:10:36;6.43;;;5.07;;
495;SDS011;39559;48.630;9.162;2023-10-08T02:13:06;7.60;;;4.65;;
495;SDS011;39559;48.630;9.162;2023-10-08T02:17:21;5.55;;;4.82;;
495;SDS011;39559;48.630;9.162;2023-10-08T02:19:47;5.15;;;3.85;;
495;SDS011;39559;48.630;9.162;2023-10-08T02:22:13;6.97;;;4.73;;
495;SDS011;39559;48.630;9.162;2023-10-08T02:24:39;6.43;;;4.57;;
495;SDS011;39559;48.630;9.162;2023-10-08T02:27:05;5.32;;;4.35;;
495;SDS011;39559;48.630;9.162;2023-10-08T02:29:31;5.93;;;4.60;;
495;SDS011;39559;48.630;9.162;2023-10-08T02:31:57;5.43;;;3.73;;
495;SDS011;39559;48.630;9.162;2023-10-08T02:34:24;5.82;;;4.22;;
495;SDS011;39559;48.630;9.162;2023-10-08T02:36:50;5.78;;;4.20;;
495;SDS011;39559;48.630;9.162;2023-10-08T02:41:18;5.30;;;4.40;;
495;SDS011;39559;48.630;9.162;2023-10-08T02:43:43;5.57;;;4.20;;
495;SDS011;39559;48.630;9.162;2023-10-08T02:46:10;6.45;;;4.00;;
495;SDS011;39559;48.630;9.162;2023-10-08T02:48:40;6.82;;;4.60;;
495;SDS011;39559;48.630;9.162;2023-10-08T02:51:06;7.05;;;4.55;;
495;SDS011;39559;48.630;9.162;2023-10-08T02:53:38;5.82;;;4.88;;
495;SDS011;39559;48.630;9.162;2023-10-08T02:56:07;7.38;;;4.50;;
495;SDS011;39559;48.630;9.162;2023-10-08T02:58:38;6.60;;;4.20;;
495;SDS011;39559;48.630;9.162;2023-10-08T03:01:04;6.43;;;4.45;;
495;SDS011;39559;48.630;9.162;2023-10-08T03:05:17;5.63;;;4.10;;
495;SDS011;39559;48.630;9.162;2023-10-08T03:07:44;7.00;;;3.95;;
495;SDS011;39559;48.630;9.162;2023-10-08T03:10:10;4.43;;;3.67;;
495;SDS011;39559;48.630;9.162;2023-10-08T03:12:45;7.65;;;4.20;;
495;SDS011;39559;48.630;9.162;2023-10-08T03:15:15;5.63;;;3.75;;
495;SDS011;39559;48.630;9.162;2023-10-08T03:18:03;7.50;;;3.88;;
495;SDS011;39559;48.630;9.162;2023-10-08T03:20:40;4.35;;;3.83;;
495;SDS011;39559;48.630;9.162;2023-10-08T03:23:14;6.85;;;4.53;;
495;SDS011;39559;48.630;9.162;2023-10-08T03:26:09;5.03;;;4.20;;
495;SDS011;39559;48.630;9.162;2023-10-08T03:29:15;6.45;;;4.38;;
495;SDS011;39559;48.630;9.162;2023-10-08T03:31:41;6.07;;;4.60;;
495;SDS011;39559;48.630;9.162;2023-10-08T03:34:18;5.40;;;3.88;;
495;SDS011;39559;48.630;9.162;2023-10-08T03:36:45;4.30;;;3.90;;
495;SDS011;39559;48.630;9.162;2023-10-08T03:39:15;5.72;;;3.97;;
495;SDS011;39559;48.630;9.162;2023-10-08T03:41:45;7.30;;;4.85;;
495;SDS011;39559;48.630;9.162;2023-10-08T03:44:24;5.97;;;4.55;;
495;SDS011;39559;48.630;9.162;2023-10-08T03:46:50;6.10;;;4.73;;
495;SDS011;39559;48.630;9.162;2023-10-08T03:49:17;5.63;;;4.50;;
495;SDS011;39559;48.630;9.162;2023-10-08T03:53:13;4.57;;;3.97;;
495;SDS011;39559;48.630;9.162;2023-10-08T03:55:39;5.37;;;4.40;;
495;SDS011;39559;48.630;9.162;2023-10-08T03:58:08;6.82;;;4.65;;
495;SDS011;39559;48.630;9.162;2023-10-08T04:00:45;4.60;;;4.07;;
495;SDS011;39559;48.630;9.162;2023-10-08T04:03:11;4.22;;;3.83;;
495;SDS011;39559;48.630;9.162;2023-10-08T04:05:37;5.10;;;3.87;;
495;SDS011;39559;48.630;9.162;2023-10-08T04:08:25;5.82;;;4.60;;
495;SDS011;39559;48.630;9.162;2023-10-08T04:11:11;5.10;;;3.90;;
495;SDS011;39559;48.630;9.162;2023-10-08T04:13:55;8.38;;;4.35;;
495;SDS011;39559;48.630;9.162;2023-10-08T04:17:11;4.20;;;3.65;;
495;SDS011;39559;48.630;9.162;2023-10-08T04:19:36;5.07;;;3.73;;
495;SDS011;39559;48.630;9.162;2023-10-08T04:22:02;7.77;;;4.60;;
495;SDS011;39559;48.630;9.162;2023-10-08T04:24:28;7.00;;;4.85;;
495;SDS011;39559;48.630;9.162;2023-10-08T04:26:57;7.30;;;5.00;;
495;SDS011;39559;48.630;9.162;2023-10-08T04:29:23;7.60;;;5.60;;
495;SDS011;39559;48.630;9.162;2023-10-08T04:31:49;4.57;;;3.90;;
495;SDS011;39559;48.630;9.162;2023-10-08T04:34:29;6.13;;;4.90;;
495;SDS011;39559;48.630;9.162;2023-10-08T04:36:55;5.63;;;4.85;;
495;SDS011;39559;48.630;9.162;2023-10-08T04:41:09;5.82;;;4.32;;
495;SDS011;39559;48.630;9.162;2023-10-08T04:43:35;5.90;;;4.60;;
495;SDS011;39559;48.630;9.162;2023-10-08T04:46:03;7.38;;;4.10;;
495;SDS011;39559;48.630;9.162;2023-10-08T04:48:50;4.93;;;4.28;;
495;SDS011;39559;48.630;9.162;2023-10-08T04:51:16;5.20;;;4.70;;
495;SDS011;39559;48.630;9.162;2023-10-08T04:53:43;6.40;;;4.43;;
495;SDS011;39559;48.630;9.162;2023-10-08T04:56:12;6.40;;;3.80;;
495;SDS011;39559;48.630;9.162;2023-10-08T04:58:44;5.63;;;3.85;;
495;SDS011;39559;48.630;9.162;2023-10-08T05:01:14;4.90;;;4.05;;
495;SDS011;39559;48.630;9.162;2023-10-08T05:05:07;6.70;;;4.32;;
495;SDS011;39559;48.630;9.162;2023-10-08T05:07:35;5.78;;;4.22;;
495;SDS011;39559;48.630;9.162;2023-10-08T05:10:10;7.10;;;5.43;;
495;SDS011;39559;48.630;9.162;2023-10-08T05:12:58;8.02;;;4.13;;
495;SDS011;39559;48.630;9.162;2023-10-08T05:15:26;5.18;;;3.80;;
495;SDS011;39559;48.630;9.162;2023-10-08T05:18:27;5.65;;;4.20;;
495;SDS011;39559;48.630;9.162;2023-10-08T05:21:13;6.45;;;4.05;;
495;SDS011;39559;48.630;9.162;2023-10-08T05:24:06;5.25;;;3.92;;
495;SDS011;39559;48.630;9.162;2023-10-08T05:29:06;6.85;;;4.32;;
495;SDS011;39559;48.630;9.162;2023-10-08T05:31:51;5.70;;;4.60;;
495;SDS011;39559;48.630;9.162;2023-10-08T05:34:37;4.50;;;3.95;;
495;SDS011;39559;48.630;9.162;2023-10-08T05:37:17;7.00;;;4.55;;
495;SDS011;39559;48.630;9.162;2023-10-08T05:40:02;5.47;;;4.55;;
495;SDS011;39559;48.630;9.162;2023-10-08T05:42:44;5.70;;;5.10;;
495;SDS011;39559;48.630;9.162;2023-10-08T05:45:14;6.05;;;4.65;;
495;SDS011;39559;48.630;9.162;2023-10-08T05:47:54;6.40;;;4.30;;
495;SDS011;39559;48.630;9.162;2023-10-08T05:53:04;5.15;;;4.65;;
495;SDS011;39559;48.630;9.162;2023-10-08T05:55:41;5.65;;;3.92;;
495;SDS011;39559;48.630;9.162;2023-10-08T05:58:13;7.55;;;5.40;;
495;SDS011;39559;48.630;9.162;2023-10-08T06:00:39;12.90;;;4.80;;
495;SDS011;39559;48.630;9.162;2023-10-08T06:03:31;8.00;;;5.18;;
495;SDS011;39559;48.630;9.162;2023-10-08T06:06:01;13.47;;;5.80;;
495;SDS011;39559;48.630;9.162;2023-10-08T06:08:39;8.60;;;6.57;;
495;SDS011;39559;48.630;9.162;2023-10-08T06:11:20;5.95;;;5.15;;
495;SDS011;39559;48.630;9.162;2023-10-08T06:14:04;6.18;;;4.90;;
495;SDS011;39559;48.630;9.162;2023-10-08T06:17:03;8.60;;;6.18;;
495;SDS011;39559;48.630;9.162;2023-10-08T06:19:47;5.80;;;4.90;;
495;SDS011;39559;48.630;9.162;2023-10-08T06:22:14;8.18;;;4.93;;
495;SDS011;39559;48.630;9.162;2023-10-08T06:24:40;7.57;;;5.60;;
495;SDS011;39559;48.630;9.162;2023-10-08T06:27:06;7.30;;;4.60;;
495;SDS011;39559;48.630;9.162;2023-10-08T06:29:32;6.03;;;5.10;;
495;SDS011;39559;48.630;9.162;2023-10-08T06:31:58;6.70;;;4.33;;
495;SDS011;39559;48.630;9.162;2023-10-08T06:34:27;6.80;;;4.78;;
495;SDS011;39559;48.630;9.162;2023-10-08T06:36:55;6.93;;;5.10;;
495;SDS011;39559;48.630;9.162;2023-10-08T06:41:02;5.50;;;4.50;;
495;SDS011;39559;48.630;9.162;2023-10-08T06:43:49;5.50;;;4.82;;
495;SDS011;39559;48.630;9.162;2023-10-08T06:46:16;5.78;;;4.95;;
495;SDS011;39559;48.630;9.162;2023-10-08T06:48:47;7.60;;;4.68;;
495;SDS011;39559;48.630;9.162;2023-10-08T06:51:14;5.38;;;4.80;;
495;SDS011;39559;48.630;9.162;2023-10-08T06:53:44;6.80;;;5.15;;
495;SDS011;39559;48.630;9.162;2023-10-08T06:56:13;6.10;;;4.75;;
495;SDS011;39559;48.630;9.162;2023-10-08T06:58:40;5.00;;;4.20;;
495;SDS011;39559;48.630;9.162;2023-10-08T07:01:17;5.32;;;4.82;;
495;SDS011;39559;48.630;9.162;2023-10-08T07:05:00;5.65;;;4.75;;
495;SDS011;39559;48.630;9.162;2023-10-08T07:07:34;5.20;;;4.63;;
495;SDS011;39559;48.630;9.162;2023-10-08T07:10:05;6.72;;;4.55;;
495;SDS011;39559;48.630;9.162;2023-10-08T07:12:35;7.50;;;4.65;;
495;SDS011;39559;48.630;9.162;2023-10-08T07:15:01;4.67;;;4.13;;
495;SDS011;39559;48.630;9.162;2023-10-08T07:17:29;5.68;;;3.90;;
495;SDS011;39559;48.630;9.162;2023-10-08T07:20:06;5.35;;;3.83;;
495;SDS011;39559;48.630;9.162;2023-10-08T07:22:39;6.60;;;4.45;;
495;SDS011;39559;48.630;9.162;2023-10-08T07:25:08;4.72;;;4.30;;
495;SDS011;39559;48.630;9.162;2023-10-08T07:28:58;6.32;;;4.57;;
495;SDS011;39559;48.630;9.162;2023-10-08T07:31:24;5.37;;;4.60;;
495;SDS011;39559;48.630;9.162;2023-10-08T07:33:56;8.30;;;4.40;;
495;SDS011;39559;48.630;9.162;2023-10-08T07:36:25;6.18;;;4.50;;
495;SDS011;39559;48.630;9.162;2023-10-08T07:38:52;4.78;;;4.38;;
495;SDS011;39559;48.630;9.162;2023-10-08T07:41:17;5.90;;;4.60;;
495;SDS011;39559;48.630;9.162;2023-10-08T07:43:45;8.50;;;4.75;;
495;SDS011;39559;48.630;9.162;2023-10-08T07:46:20;5.80;;;5.00;;
495;SDS011;39559;48.630;9.162;2023-10-08T07:48:46;7.30;;;4.50;;
495;SDS011;39559;48.630;9.162;2023-10-08T07:52:57;4.97;;;4.47;;
495;SDS011;39559;48.630;9.162;2023-10-08T07:55:22;4.57;;;4.07;;
495;SDS011;39559;48.630;9.162;2023-10-08T07:57:48;6.87;;;4.50;;
495;SDS011;39559;48.630;9.162;2023-10-08T08:00:14;6.97;;;4.40;;
495;SDS011;39559;48.630;9.162;2023-10-08T08:03:03;5.35;;;4.57;;
495;SDS011;39559;48.630;9.162;2023-10-08T08:05:29;4.78;;;4.07;;
495;SDS011;39559;48.630;9.162;2023-10-08T08:07:55;6.63;;;5.03;;
495;SDS011;39559;48.630;9.162;2023-10-08T08:10:23;6.82;;;5.03;;
495;SDS011;39559;48.630;9.162;2023-10-08T08:12:49;7.60;;;6.00;;
495;SDS011;39559;48.630;9.162;2023-10-08T08:16:55;6.32;;;5.00;;
495;SDS011;39559;48.630;9.162;2023-10-08T08:19:21;5.40;;;4.50;;
495;SDS011;39559;48.630;9.162;2023-10-08T08:21:49;4.40;;;3.65;;
495;SDS011;39559;48.630;9.162;2023-10-08T08:24:17;9.35;;;5.45;;
495;SDS011;39559;48.630;9.162;2023-10-08T08:26:55;4.93;;;3.95;;
495;SDS011;39559;48.630;9.162;2023-10-08T08:29:33;4.90;;;4.05;;
495;SDS011;39559;48.630;9.162;2023-10-08T08:32:09;4.22;;;3.63;;
495;SDS011;39559;48.630;9.162;2023-10-08T08:34:43;5.60;;;4.10;;
495;SDS011;39559;48.630;9.162;2023-10-08T08:37:11;4.80;;;4.00;;
495;SDS011;39559;48.630;9.162;2023-10-08T08:41:01;7.43;;;3.95;;
495;SDS011;39559;48.630;9.162;2023-10-08T08:43:33;5.15;;;4.20;;
495;SDS011;39559;48.630;9.162;2023-10-08T08:46:00;5.90;;;3.72;;
495;SDS011;39559;48.630;9.162;2023-10-08T08:48:27;7.03;;;3.78;;
495;SDS011;39559;48.630;9.162;2023-10-08T08:50:55;8.40;;;3.65;;
495;SDS011;39559;48.630;9.162;2023-10-08T08:53:22;5.72;;;4.07;;
495;SDS011;39559;48.630;9.162;2023-10-08T08:55:48;5.67;;;4.57;;
495;SDS011;39559;48.630;9.162;2023-10-08T08:58:16;6.72;;;4.28;;
495;SDS011;39559;48.630;9.162;2023-10-08T09:00:41;3.53;;;3.23;;
495;SDS011;39559;48.630;9.162;2023-10-08T09:04:52;5.63;;;3.80;;
495;SDS011;39559;48.630;9.162;2023-10-08T09:07:19;6.43;;;4.45;;
495;SDS011;39559;48.630;9.162;2023-10-08T09:09:46;5.85;;;4.50;;
495;SDS011;39559;48.630;9.162;2023-10-08T09:12:15;4.60;;;3.73;;
495;SDS011;39559;48.630;9.162;2023-10-08T09:14:42;5.77;;;4.00;;
495;SDS011;39559;48.630;9.162;2023-10-08T09:17:10;4.20;;;3.53;;
495;SDS011;39559;48.630;9.162;2023-10-08T09:19:36;5.20;;;3.67;;
495;SDS011;39559;48.630;9.162;2023-10-08T09:22:09;4.77;;;3.37;;
495;SDS011;39559;48.630;9.162;2023-10-08T09:24:37;3.73;;;3.30;;
495;SDS011;39559;48.630;9.162;2023-10-08T09:28:50;3.77;;;3.17;;
495;SDS011;39559;48.630;9.162;2023-10-08T09:31:16;7.83;;;2.93;;
495;SDS011;39559;48.630;9.162;2023-10-08T09:33:43;5.40;;;3.53;;
495;SDS011;39559;48.630;9.162;2023-10-08T09:36:18;4.30;;;3.40;;
495;SDS011;39559;48.630;9.162;2023-10-08T09:38:45;3.57;;;3.00;;
495;SDS011;39559;48.630;9.162;2023-10-08T09:41:14;5.40;;;3.43;;
495;SDS011;39559;48.630;9.162;2023-10-08T09:43:40;3.70;;;2.77;;
495;SDS011;39559;48.630;9.162;2023-10-08T09:46:18;4.63;;;2.73;;
495;SDS011;39559;48.630;9.162;2023-10-08T09:48:50;4.10;;;2.80;;
495;SDS011;39559;48.630;9.162;2023-10-08T09:52:49;4.73;;;2.83;;
495;SDS011;39559;48.630;9.162;2023-10-08T09:55:22;5.60;;;3.67;;
495;SDS011;39559;48.630;9.162;2023-10-08T09:57:48;4.07;;;3.13;;
495;SDS011;39559;48.630;9.162;2023-10-08T10:00:16;5.97;;;3.93;;
495;SDS011;39559;48.630;9.162;2023-10-08T10:02:52;3.43;;;3.13;;
495;SDS011;39559;48.630;9.162;2023-10-08T10:05:19;5.00;;;3.47;;
495;SDS011;39559;48.630;9.162;2023-10-08T10:07:47;3.50;;;3.20;;
495;SDS011;39559;48.630;9.162;2023-10-08T10:10:26;5.33;;;3.60;;
495;SDS011;39559;48.630;9.162;2023-10-08T10:13:02;5.37;;;3.37;;
495;SDS011;39559;48.630;9.162;2023-10-08T10:17:08;4.17;;;3.10;;
495;SDS011;39559;48.630;9.162;2023-10-08T10:19:37;5.03;;;3.10;;
495;SDS011;39559;48.630;9.162;2023-10-08T10:22:03;3.33;;;3.03;;
495;SDS011;39559;48.630;9.162;2023-10-08T10:24:35;6.93;;;2.87;;
495;SDS011;39559;48.630;9.162;2023-10-08T10:27:11;5.20;;;2.93;;
495;SDS011;39559;48.630;9.162;2023-10-08T10:29:40;5.60;;;3.27;;
495;SDS011;39559;48.630;9.162;2023-10-08T10:32:10;3.37;;;3.07;;
495;SDS011;39559;48.630;9.162;2023-10-08T10:34:40;5.40;;;3.30;;
495;SDS011;39559;48.630;9.162;2023-10-08T10:37:12;4.50;;;3.57;;
495;SDS011;39559;48.630;9.162;2023-10-08T10:40:47;3.17;;;2.87;;
495;SDS011;39559;48.630;9.162;2023-10-08T10:43:25;6.70;;;3.67;;
495;SDS011;39559;48.630;9.162;2023-10-08T10:46:01;8.37;;;3.57;;
495;SDS011;39559;48.630;9.162;2023-10-08T10:48:54;4.00;;;3.47;;
495;SDS011;39559;48.630;9.162;2023-10-08T10:51:40;3.50;;;3.20;;
495;SDS011;39559;48.630;9.162;2023-10-08T10:54:06;4.73;;;3.23;;
495;SDS011;39559;48.630;9.162;2023-10-08T10:56:35;3.30;;;3.00;;
495;SDS011;39559;48.630;9.162;2023-10-08T10:59:07;4.40;;;3.50;;
495;SDS011;39559;48.630;9.162;2023-10-08T11:01:52;3.80;;;3.20;;
495;SDS011;39559;48.630;9.162;2023-10-08T11:04:41;3.97;;;2.97;;
495;SDS011;39559;48.630;9.162;2023-10-08T11:07:20;4.93;;;3.30;;
495;SDS011;39559;48.630;9.162;2023-10-08T11:09:47;5.20;;;3.40;;
495;SDS011;39559;48.630;9.162;2023-10-08T11:12:13;3.30;;;2.97;;
495;SDS011;39559;48.630;9.162;2023-10-08T11:14:46;5.30;;;4.17;;
495;SDS011;39559;48.630;9.162;2023-10-08T11:17:12;9.47;;;3.83;;
495;SDS011;39559;48.630;9.162;2023-10-08T11:19:42;3.90;;;3.07;;
495;SDS011;39559;48.630;9.162;2023-10-08T11:22:11;3.70;;;2.97;;
495;SDS011;39559;48.630;9.162;2023-10-08T11:24:48;8.30;;;4.20;;
495;SDS011;39559;48.630;9.162;2023-10-08T11:28:39;3.53;;;2.57;;
495;SDS011;39559;48.630;9.162;2023-10-08T11:31:10;5.93;;;3.97;;
495;SDS011;39559;48.630;9.162;2023-10-08T11:33:37;5.40;;;3.40;;
495;SDS011;39559;48.630;9.162;2023-10-08T11:36:04;4.63;;;3.47;;
495;SDS011;39559;48.630;9.162;2023-10-08T11:38:52;5.17;;;3.97;;
495;SDS011;39559;48.630;9.162;2023-10-08T11:41:26;4.33;;;3.13;;
495;SDS011;39559;48.630;9.162;2023-10-08T11:43:54;3.90;;;3.10;;
495;SDS011;39559;48.630;9.162;2023-10-08T11:48:58;7.43;;;3.00;;
495;SDS011;39559;48.630;9.162;2023-10-08T11:52:34;5.00;;;3.70;;
495;SDS011;39559;48.630;9.162;2023-10-08T11:55:01;10.70;;;4.03;;
495;SDS011;39559;48.630;9.162;2023-10-08T11:57:27;5.33;;;4.07;;
495;SDS011;39559;48.630;9.162;2023-10-08T11:59:52;5.60;;;3.27;;
495;SDS011;39559;48.630;9.162;2023-10-08T12:02:19;7.40;;;3.47;;
495;SDS011;39559;48.630;9.162;2023-10-08T12:04:46;5.77;;;3.30;;
495;SDS011;39559;48.630;9.162;2023-10-08T12:07:12;4.07;;;3.30;;
495;SDS011;39559;48.630;9.162;2023-10-08T12:09:42;5.90;;;3.83;;
495;SDS011;39559;48.630;9.162;2023-10-08T12:12:08;6.20;;;3.70;;
495;SDS011;39559;48.630;9.162;2023-10-08T12:16:33;5.80;;;3.80;;
495;SDS011;39559;48.630;9.162;2023-10-08T12:19:02;6.73;;;4.40;;
495;SDS011;39559;48.630;9.162;2023-10-08T12:21:41;7.00;;;3.73;;
495;SDS011;39559;48.630;9.162;2023-10-08T12:24:07;8.20;;;4.13;;
495;SDS011;39559;48.630;9.162;2023-10-08T12:26:37;5.77;;;3.63;;
495;SDS011;39559;48.630;9.162;2023-10-08T12:29:13;5.27;;;3.63;;
495;SDS011;39559;48.630;9.162;2023-10-08T12:31:39;5.43;;;3.10;;
495;SDS011;39559;48.630;9.162;2023-10-08T12:34:06;4.03;;;3.10;;
495;SDS011;39559;48.630;9.162;2023-10-08T12:36:31;5.20;;;3.97;;
495;SDS011;39559;48.630;9.162;2023-10-08T12:40:29;3.87;;;3.40;;
495;SDS011;39559;48.630;9.162;2023-10-08T12:43:08;7.83;;;4.07;;
495;SDS011;39559;48.630;9.162;2023-10-08T12:45:34;5.70;;;3.50;;
495;SDS011;39559;48.630;9.162;2023-10-08T12:48:03;6.57;;;4.20;;
495;SDS011;39559;48.630;9.162;2023-10-08T12:50:28;4.97;;;3.90;;
495;SDS011;39559;48.630;9.162;2023-10-08T12:53:11;4.10;;;3.40;;
495;SDS011;39559;48.630;9.162;2023-10-08T12:55:40;4.60;;;3.33;;
495;SDS011;39559;48.630;9.162;2023-10-08T12:58:06;7.90;;;3.67;;
495;SDS011;39559;48.630;9.162;2023-10-08T13:00:37;5.97;;;4.27;;
495;SDS011;39559;48.630;9.162;2023-10-08T13:04:26;5.70;;;3.73;;
495;SDS011;39559;48.630;9.162;2023-10-08T13:06:56;7.60;;;3.83;;
495;SDS011;39559;48.630;9.162;2023-10-08T13:09:23;4.87;;;3.40;;
495;SDS011;39559;48.630;9.162;2023-10-08T13:11:49;6.23;;;3.90;;
495;SDS011;39559;48.630;9.162;2023-10-08T13:14:15;10.80;;;4.70;;
495;SDS011;39559;48.630;9.162;2023-10-08T13:16:41;5.23;;;3.50;;
495;SDS011;39559;48.630;9.162;2023-10-08T13:19:06;6.33;;;3.20;;
495;SDS011;39559;48.630;9.162;2023-10-08T13:21:34;3.83;;;3.50;;
495;SDS011;39559;48.630;9.162;2023-10-08T13:24:01;11.30;;;3.93;;
495;SDS011;39559;48.630;9.162;2023-10-08T13:28:21;6.03;;;3.37;;
495;SDS011;39559;48.630;9.162;2023-10-08T13:30:51;5.73;;;3.07;;
495;SDS011;39559;48.630;9.162;2023-10-08T13:33:20;5.00;;;3.23;;
495;SDS011;39559;48.630;9.162;2023-10-08T13:35:49;4.23;;;3.83;;
495;SDS011;39559;48.630;9.162;2023-10-08T13:38:18;11.77;;;4.40;;
495;SDS011;39559;48.630;9.162;2023-10-08T13:40:45;5.10;;;3.53;;
495;SDS011;39559;48.630;9.162;2023-10-08T13:43:58;9.80;;;3.83;;
495;SDS011;39559;48.630;9.162;2023-10-08T13:46:30;5.97;;;3.20;;
495;SDS011;39559;48.630;9.162;2023-10-08T13:48:56;5.70;;;3.40;;
495;SDS011;39559;48.630;9.162;2023-10-08T13:52:18;5.50;;;3.50;;
495;SDS011;39559;48.630;9.162;2023-10-08T13:54:46;7.47;;;3.90;;
495;SDS011;39559;48.630;9.162;2023-10-08T13:57:20;7.43;;;4.50;;
495;SDS011;39559;48.630;9.162;2023-10-08T13:59:49;7.23;;;3.80;;
495;SDS011;39559;48.630;9.162;2023-10-08T14:02:15;10.20;;;3.50;;
495;SDS011;39559;48.630;9.162;2023-10-08T14:04:44;5.57;;;3.23;;
495;SDS011;39559;48.630;9.162;2023-10-08T14:07:10;8.50;;;3.17;;
495;SDS011;39559;48.630;9.162;2023-10-08T14:09:43;5.80;;;3.60;;
495;SDS011;39559;48.630;9.162;2023-10-08T14:12:10;5.50;;;3.40;;
495;SDS011;39559;48.630;9.162;2023-10-08T14:16:13;5.70;;;3.60;;
495;SDS011;39559;48.630;9.162;2023-10-08T14:18:40;6.37;;;3.80;;
495;SDS011;39559;48.630;9.162;2023-10-08T14:21:09;5.43;;;3.87;;
495;SDS011;39559;48.630;9.162;2023-10-08T14:23:38;6.00;;;3.47;;
495;SDS011;39559;48.630;9.162;2023-10-08T14:26:07;6.20;;;3.47;;
495;SDS011;39559;48.630;9.162;2023-10-08T14:28:34;8.87;;;4.37;;
495;SDS011;39559;48.630;9.162;2023-10-08T14:31:09;8.93;;;3.77;;
495;SDS011;39559;48.630;9.162;2023-10-08T14:33:41;14.43;;;4.20;;
495;SDS011;39559;48.630;9.162;2023-10-08T14:36:09;9.30;;;3.97;;
495;SDS011;39559;48.630;9.162;2023-10-08T14:40:09;7.70;;;3.87;;
495;SDS011;39559;48.630;9.162;2023-10-08T14:43:13;7.20;;;3.80;;
495;SDS011;39559;48.630;9.162;2023-10-08T14:45:41;7.70;;;3.37;;
495;SDS011;39559;48.630;9.162;2023-10-08T14:48:06;7.33;;;3.80;;
495;SDS011;39559;48.630;9.162;2023-10-08T14:50:36;5.93;;;3.47;;
495;SDS011;39559;48.630;9.162;2023-10-08T14:53:04;9.93;;;3.50;;
495;SDS011;39559;48.630;9.162;2023-10-08T14:55:30;5.90;;;2.80;;
495;SDS011;39559;48.630;9.162;2023-10-08T14:58:00;3.73;;;3.17;;
495;SDS011;39559;48.630;9.162;2023-10-08T15:00:31;4.97;;;3.70;;
495;SDS011;39559;48.630;9.162;2023-10-08T15:04:04;4.10;;;3.27;;
495;SDS011;39559;48.630;9.162;2023-10-08T15:06:31;4.30;;;3.43;;
495;SDS011;39559;48.630;9.162;2023-10-08T15:09:00;5.30;;;3.60;;
495;SDS011;39559;48.630;9.162;2023-10-08T15:11:26;7.23;;;4.20;;
495;SDS011;39559;48.630;9.162;2023-10-08T15:13:55;11.53;;;4.07;;
495;SDS011;39559;48.630;9.162;2023-10-08T15:16:21;4.47;;;3.27;;
495;SDS011;39559;48.630;9.162;2023-10-08T15:18:51;7.07;;;4.00;;
495;SDS011;39559;48.630;9.162;2023-10-08T15:21:18;7.33;;;3.40;;
495;SDS011;39559;48.630;9.162;2023-10-08T15:23:44;5.20;;;4.00;;
495;SDS011;39559;48.630;9.162;2023-10-08T15:27:59;5.07;;;3.80;;
495;SDS011;39559;48.630;9.162;2023-10-08T15:30:26;3.50;;;3.20;;
495;SDS011;39559;48.630;9.162;2023-10-08T15:32:52;4.47;;;3.23;;
495;SDS011;39559;48.630;9.162;2023-10-08T15:35:18;5.10;;;3.67;;
495;SDS011;39559;48.630;9.162;2023-10-08T15:37:50;4.00;;;3.20;;
495;SDS011;39559;48.630;9.162;2023-10-08T15:40:17;6.90;;;3.63;;
495;SDS011;39559;48.630;9.162;2023-10-08T15:42:43;6.53;;;4.73;;
495;SDS011;39559;48.630;9.162;2023-10-08T15:45:11;5.70;;;3.83;;
495;SDS011;39559;48.630;9.162;2023-10-08T15:47:39;5.57;;;3.47;;
495;SDS011;39559;48.630;9.162;2023-10-08T15:51:54;8.30;;;3.90;;
495;SDS011;39559;48.630;9.162;2023-10-08T15:54:20;3.73;;;2.87;;
495;SDS011;39559;48.630;9.162;2023-10-08T15:56:46;9.93;;;4.50;;
495;SDS011;39559;48.630;9.162;2023-10-08T15:59:12;5.63;;;3.63;;
495;SDS011;39559;48.630;9.162;2023-10-08T16:01:37;6.37;;;3.43;;
495;SDS011;39559;48.630;9.162;2023-10-08T16:04:03;5.63;;;3.80;;
495;SDS011;39559;48.630;9.162;2023-10-08T16:06:30;6.77;;;3.90;;
495;SDS011;39559;48.630;9.162;2023-10-08T16:08:55;5.00;;;3.33;;
495;SDS011;39559;48.630;9.162;2023-10-08T16:11:20;4.20;;;3.60;;
495;SDS011;39559;48.630;9.162;2023-10-08T16:15:50;12.77;;;4.37;;
495;SDS011;39559;48.630;9.162;2023-10-08T16:18:15;5.20;;;3.40;;
495;SDS011;39559;48.630;9.162;2023-10-08T16:20:43;7.50;;;3.80;;
495;SDS011;39559;48.630;9.162;2023-10-08T16:23:09;7.37;;;4.27;;
495;SDS011;39559;48.630;9.162;2023-10-08T16:25:35;3.77;;;3.20;;
495;SDS011;39559;48.630;9.162;2023-10-08T16:28:02;5.77;;;3.40;;
495;SDS011;39559;48.630;9.162;2023-10-08T16:30:29;18.20;;;3.90;;
495;SDS011;39559;48.630;9.162;2023-10-08T16:32:57;5.10;;;3.63;;
495;SDS011;39559;48.630;9.162;2023-10-08T16:35:23;7.50;;;4.20;;
495;SDS011;39559;48.630;9.162;2023-10-08T16:39:45;6.50;;;3.23;;